Time;durP1;ratioP1;P1;durP2;ratioP2;P2;SDS_P1;SDS_P2;PMS_P1;PMS_P2;Temp;Humidity;BMP_temperature;BMP_pressure;BME280_temperature;BME280_humidity;BME280_pressure;Samples;Min_cycle;Max_cycle;Signal;HPM_P1;HPM_P2
2023/08/29 00:09:52;;;;;;;;;;;15.10;99.90;;;;;;6730797;88;20120;-76
2023/08/29 00:19:53;;;;;;;;;;;14.90;99.90;;;;;;6730724;88;20061;-76
2023/08/29 00:29:54;;;;;;;;;;;14.90;99.90;;;;;;6723931;88;20077;-76
2023/08/29 00:39:54;;;;;;;;;;;14.80;99.90;;;;;;6716456;88;20454;-75
2023/08/29 00:49:55;;;;;;;;;;;14.90;99.90;;;;;;6732778;88;20506;-76
2023/08/29 00:59:55;;;;;;;;;;;14.90;99.90;;;;;;6737758;88;20121;-76
2023/08/29 01:09:56;;;;;;;;;;;15.00;99.90;;;;;;6721107;88;20050;-76
2023/08/29 01:19:57;;;;;;;;;;;15.00;99.90;;;;;;6717748;88;20553;-75
2023/08/29 01:29:58;;;;;;;;;;;15.00;99.90;;;;;;6733105;88;20531;-75
2023/08/29 01:39:58;;;;;;;;;;;15.00;99.90;;;;;;6718621;88;20066;-75
2023/08/29 01:50:00;;;;;;;;;;;15.00;99.90;;;;;;6716683;88;20105;-75
2023/08/29 02:00:01;;;;;;;;;;;15.00;99.90;;;;;;6726653;88;20577;-75
2023/08/29 02:10:02;;;;;;;;;;;15.00;99.90;;;;;;6731906;88;20043;-75
2023/08/29 02:20:04;;;;;;;;;;;15.00;99.90;;;;;;6734086;88;20051;-75
2023/08/29 02:30:05;;;;;;;;;;;15.00;99.90;;;;;;6669499;77;20104;-77
2023/08/29 02:40:09;;;;;;;;;;;15.00;99.90;;;;;;6721839;88;20076;-77
2023/08/29 02:50:09;;;;;;;;;;;14.90;99.90;;;;;;6732514;88;20053;-78
2023/08/29 03:00:10;;;;;;;;;;;14.90;99.90;;;;;;6732754;88;20076;-78
2023/08/29 03:10:12;;;;;;;;;;;14.80;99.90;;;;;;6733233;88;20038;-77
2023/08/29 03:20:12;;;;;;;;;;;14.80;99.90;;;;;;6736569;88;20051;-77
2023/08/29 03:30:12;;;;;;;;;;;14.80;99.90;;;;;;6732375;88;20584;-77
2023/08/29 03:40:13;;;;;;;;;;;14.80;99.90;;;;;;6731367;88;20084;-77
2023/08/29 03:50:13;;;;;;;;;;;14.80;99.90;;;;;;6746579;88;20115;-77
2023/08/29 04:00:14;;;;;;;;;;;14.60;99.90;;;;;;6748874;88;20559;-76
2023/08/29 04:10:15;;;;;;;;;;;14.60;99.90;;;;;;6749418;88;20088;-76
2023/08/29 04:20:16;;;;;;;;;;;14.50;99.90;;;;;;6728578;88;20569;-76
2023/08/29 04:30:16;;;;;;;;;;;14.70;99.90;;;;;;6716035;88;20100;-77
2023/08/29 04:40:17;;;;;;;;;;;14.60;99.90;;;;;;6713705;88;20054;-77
2023/08/29 04:50:18;;;;;;;;;;;14.50;99.90;;;;;;6721402;88;20074;-76
2023/08/29 05:00:18;;;;;;;;;;;14.50;99.90;;;;;;6721922;88;20250;-77
2023/08/29 05:10:19;;;;;;;;;;;14.50;99.90;;;;;;6720856;88;20061;-77
2023/08/29 05:20:19;;;;;;;;;;;14.60;99.90;;;;;;6716949;88;20530;-77
2023/08/29 05:30:20;;;;;;;;;;;14.60;99.90;;;;;;6716422;88;20220;-76
2023/08/29 05:40:20;;;;;;;;;;;14.60;99.90;;;;;;6728175;88;20134;-77
2023/08/29 05:50:21;;;;;;;;;;;14.80;99.90;;;;;;6716956;88;20099;-77
2023/08/29 06:00:21;;;;;;;;;;;14.90;99.90;;;;;;6717723;88;20494;-76
2023/08/29 06:10:22;;;;;;;;;;;15.00;99.90;;;;;;6720374;88;20073;-76
2023/08/29 06:20:23;;;;;;;;;;;15.10;99.90;;;;;;6723511;88;20058;-76
2023/08/29 06:30:23;;;;;;;;;;;15.30;99.90;;;;;;6722418;88;20505;-77
2023/08/29 06:40:24;;;;;;;;;;;15.30;99.90;;;;;;6721706;88;20639;-76
2023/08/29 06:50:24;;;;;;;;;;;15.50;99.90;;;;;;6715608;88;20079;-76
2023/08/29 07:00:25;;;;;;;;;;;15.70;99.90;;;;;;6732409;88;20178;-75
2023/08/29 07:10:25;;;;;;;;;;;15.90;99.90;;;;;;6728351;88;20107;-76
2023/08/29 07:20:26;;;;;;;;;;;16.10;99.90;;;;;;6720163;88;21076;-76
2023/08/29 07:30:26;;;;;;;;;;;16.30;99.90;;;;;;6733870;88;20108;-76
2023/08/29 07:40:27;;;;;;;;;;;16.40;99.90;;;;;;6731984;88;20503;-77
2023/08/29 07:50:28;;;;;;;;;;;16.60;99.90;;;;;;6730223;88;20120;-77
2023/08/29 08:00:28;;;;;;;;;;;16.80;99.90;;;;;;6729469;88;20076;-77
2023/08/29 08:10:29;;;;;;;;;;;16.80;99.90;;;;;;6731280;88;20071;-77
2023/08/29 08:20:29;;;;;;;;;;;17.00;99.90;;;;;;6731211;88;20156;-77
2023/08/29 08:30:30;;;;;;;;;;;17.20;99.90;;;;;;6729989;88;20058;-76
2023/08/29 08:40:31;;;;;;;;;;;17.40;99.90;;;;;;6731816;88;20071;-76
2023/08/29 08:50:31;;;;;;;;;;;17.70;99.90;;;;;;6733565;88;20138;-77
2023/08/29 09:00:32;;;;;;;;;;;18.00;99.90;;;;;;6729724;88;20071;-77
2023/08/29 09:10:33;;;;;;;;;;;18.20;99.90;;;;;;6732637;88;20527;-77
2023/08/29 09:20:33;;;;;;;;;;;18.50;99.90;;;;;;6733330;88;20069;-77
2023/08/29 09:30:40;;;;;;;;;;;18.50;99.90;;;;;;6732304;88;20185;-76
2023/08/29 09:40:44;;;;;;;;;;;18.50;99.90;;;;;;6731693;88;20547;-76
2023/08/29 09:50:45;;;;;;;;;;;18.90;99.90;;;;;;6733465;88;20131;-76
2023/08/29 10:00:46;;;;;;;;;;;19.20;99.90;;;;;;6730885;88;20236;-76
2023/08/29 10:10:47;;;;;;;;;;;19.60;99.90;;;;;;6731328;88;20062;-77
2023/08/29 10:20:48;;;;;;;;;;;19.60;99.90;;;;;;6734594;88;20546;-76
2023/08/29 10:30:50;;;;;;;;;;;20.30;99.90;;;;;;6739032;88;20455;-77
2023/08/29 10:40:59;;;;;;;;;;;20.40;99.90;;;;;;6734018;88;20179;-76
2023/08/29 10:51:10;;;;;;;;;;;20.80;99.90;;;;;;6734449;88;20192;-78
2023/08/29 11:01:30;;;;;;;;;;;21.20;99.90;;;;;;6732562;88;20092;-77
2023/08/29 11:11:31;;;;;;;;;;;21.40;99.90;;;;;;6728705;88;20204;-77
2023/08/29 11:21:31;;;;;;;;;;;21.70;99.90;;;;;;6734338;88;20054;-75
2023/08/29 11:31:32;;;;;;;;;;;22.10;99.90;;;;;;6733469;88;20049;-78
2023/08/29 11:41:34;;;;;;;;;;;22.40;99.90;;;;;;6731468;88;20127;-75
2023/08/29 11:51:34;;;;;;;;;;;22.50;99.90;;;;;;6732965;88;20043;-75
2023/08/29 12:01:38;;;;;;;;;;;23.20;99.90;;;;;;6733020;88;20570;-75
2023/08/29 12:11:41;;;;;;;;;;;23.40;99.90;;;;;;6735443;88;20160;-75
2023/08/29 12:21:51;;;;;;;;;;;23.90;99.90;;;;;;6733283;88;20058;-75
2023/08/29 12:31:52;;;;;;;;;;;23.20;99.90;;;;;;6732427;88;20081;-75
2023/08/29 12:41:53;;;;;;;;;;;22.90;99.90;;;;;;6734304;88;20088;-75
2023/08/29 12:51:53;;;;;;;;;;;23.20;99.90;;;;;;6734437;88;20456;-75
2023/08/29 13:01:54;;;;;;;;;;;23.70;99.90;;;;;;6736314;88;20055;-77
2023/08/29 13:11:54;;;;;;;;;;;24.30;99.90;;;;;;6739983;88;20046;-76
2023/08/29 13:21:55;;;;;;;;;;;24.00;99.90;;;;;;6735629;88;20503;-76
2023/08/29 13:31:56;;;;;;;;;;;23.40;99.90;;;;;;6732597;88;20074;-75
2023/08/29 13:41:56;;;;;;;;;;;24.10;99.90;;;;;;6735111;88;20090;-76
2023/08/29 13:51:57;;;;;;;;;;;24.20;99.90;;;;;;6737706;88;20118;-76
2023/08/29 14:01:57;;;;;;;;;;;23.90;99.90;;;;;;6734354;88;20072;-75
2023/08/29 14:11:58;;;;;;;;;;;23.40;99.90;;;;;;6731722;88;20495;-76
2023/08/29 14:21:59;;;;;;;;;;;23.40;99.90;;;;;;6733359;88;20591;-77
2023/08/29 14:42:41;;;;;;;;;;;24.00;99.90;;;;;;6636990;88;20058;-80
2023/08/29 14:52:42;;;;;;;;;;;24.40;99.90;;;;;;6638399;88;20097;-79
2023/08/29 15:02:43;;;;;;;;;;;24.30;99.90;;;;;;6628963;89;20074;-78
2023/08/29 15:12:44;;;;;;;;;;;24.60;99.90;;;;;;6626037;89;20565;-80
2023/08/29 15:22:44;;;;;;;;;;;24.50;99.90;;;;;;6627233;89;20080;-80
2023/08/29 15:32:45;;;;;;;;;;;25.20;99.90;;;;;;6631345;88;20121;-79
2023/08/29 15:42:46;;;;;;;;;;;25.00;99.30;;;;;;6631161;88;20142;-78
2023/08/29 15:52:47;;;;;;;;;;;24.70;99.90;;;;;;6636839;88;20035;-82
2023/08/29 16:02:49;;;;;;;;;;;24.40;99.90;;;;;;6656821;88;20074;-82
2023/08/29 16:12:50;;;;;;;;;;;24.20;99.90;;;;;;6717296;88;20067;-82
2023/08/29 16:22:50;;;;;;;;;;;24.00;99.90;;;;;;6719149;88;20144;-82
2023/08/29 16:32:51;;;;;;;;;;;23.80;99.90;;;;;;6643555;88;20063;-80
2023/08/29 16:42:51;;;;;;;;;;;24.00;99.40;;;;;;6652609;88;20572;-81
2023/08/29 16:52:52;;;;;;;;;;;23.70;99.60;;;;;;6662210;88;20088;-80
2023/08/29 17:02:52;;;;;;;;;;;23.00;99.90;;;;;;6631736;88;20548;-80
2023/08/29 17:12:52;;;;;;;;;;;22.50;99.90;;;;;;6639847;89;20058;-80
2023/08/29 17:22:53;;;;;;;;;;;22.10;99.90;;;;;;6638928;89;20081;-79
2023/08/29 17:32:53;;;;;;;;;;;21.70;99.90;;;;;;6640914;88;20139;-82
2023/08/29 17:42:54;;;;;;;;;;;21.50;99.90;;;;;;6631895;89;20076;-79
2023/08/29 17:52:54;;;;;;;;;;;21.10;99.90;;;;;;6633955;89;20054;-80
2023/08/29 18:02:55;;;;;;;;;;;20.80;99.90;;;;;;6637036;89;20210;-80
2023/08/29 18:12:55;;;;;;;;;;;20.50;99.90;;;;;;6636717;88;20557;-80
2023/08/29 18:22:56;;;;;;;;;;;20.10;99.90;;;;;;6632046;89;20054;-79
2023/08/29 18:32:57;;;;;;;;;;;19.80;99.90;;;;;;6634081;89;20230;-80
2023/08/29 18:42:58;;;;;;;;;;;19.20;99.90;;;;;;6633715;89;20062;-80
2023/08/29 18:52:58;;;;;;;;;;;19.00;99.90;;;;;;6642282;89;20046;-80
2023/08/29 19:02:59;;;;;;;;;;;18.50;99.90;;;;;;6653543;88;20669;-79
2023/08/29 19:13:00;;;;;;;;;;;18.20;99.90;;;;;;6653175;89;20064;-83
2023/08/29 19:23:00;;;;;;;;;;;17.90;99.90;;;;;;6651298;89;20187;-82
2023/08/29 19:33:03;;;;;;;;;;;17.30;99.90;;;;;;6650953;89;20133;-81
2023/08/29 19:43:04;;;;;;;;;;;17.10;99.90;;;;;;6647013;88;20174;-80
2023/08/29 19:53:04;;;;;;;;;;;17.00;99.90;;;;;;6645768;88;20078;-81
2023/08/29 20:03:05;;;;;;;;;;;17.20;99.90;;;;;;6650496;88;20063;-81
2023/08/29 20:13:05;;;;;;;;;;;17.30;99.90;;;;;;6647140;88;20039;-79
2023/08/29 20:23:08;;;;;;;;;;;17.10;99.90;;;;;;6649183;88;20051;-82
2023/08/29 20:43:11;;;;;;;;;;;17.10;99.90;;;;;;6622929;88;20109;-76
2023/08/29 20:53:12;;;;;;;;;;;17.30;99.90;;;;;;6604725;89;20103;-77
2023/08/29 21:03:12;;;;;;;;;;;17.30;99.90;;;;;;6617549;88;20100;-76
2023/08/29 21:13:13;;;;;;;;;;;17.10;99.90;;;;;;6634373;88;20593;-76
2023/08/29 21:23:14;;;;;;;;;;;17.10;99.90;;;;;;6615873;88;20838;-76
2023/08/29 21:33:14;;;;;;;;;;;17.20;99.90;;;;;;6612570;88;20089;-77
2023/08/29 21:43:18;;;;;;;;;;;17.10;99.90;;;;;;6615236;88;20209;-77
2023/08/29 21:53:19;;;;;;;;;;;17.20;99.90;;;;;;6626402;88;20673;-76
2023/08/29 22:03:22;;;;;;;;;;;17.10;99.90;;;;;;6635222;88;20115;-77
2023/08/29 22:13:22;;;;;;;;;;;17.00;99.90;;;;;;6631542;88;20593;-76
2023/08/29 22:23:23;;;;;;;;;;;17.00;99.90;;;;;;6621401;89;20086;-77
2023/08/29 22:33:23;;;;;;;;;;;16.90;99.90;;;;;;6614193;89;20129;-76
2023/08/29 22:43:23;;;;;;;;;;;16.90;99.90;;;;;;6610453;89;20225;-77
2023/08/29 22:53:24;;;;;;;;;;;16.80;99.90;;;;;;6618018;89;20441;-77
2023/08/29 23:03:26;;;;;;;;;;;16.70;99.90;;;;;;6615324;89;20066;-77
2023/08/29 23:13:27;;;;;;;;;;;16.80;99.90;;;;;;6632345;88;20242;-77
2023/08/29 23:23:27;;;;;;;;;;;16.70;99.90;;;;;;6629956;88;20478;-77
2023/08/29 23:33:28;;;;;;;;;;;16.70;99.90;;;;;;6629665;88;20124;-76
2023/08/29 23:43:28;;;;;;;;;;;16.60;99.90;;;;;;6629934;88;20058;-76
2023/08/29 23:53:29;;;;;;;;;;;16.40;99.90;;;;;;6624398;88;20118;-77
